Skip to main content

NOAA/GLERL Met Station at Chicago, IL

Previous 5 days (top of hour only)
See also Previous 3 Hours (2 minute increments)
Jump down to Data
Switch to [English][Metric]
Zoom: Click and drag, Pan: shift-click and drag, Unzoom: double-click, Unzoom All




Note: Speed = mean wind during 2-minute period at top of hour,
Gust = max wind during 2-minute period at top of hour,
Peak = max wind during entire hour.
• See also 5-day windrose plot


NOAA/GLERL Met Station at Chicago, IL

Previous 5 days (top of hour only)
See also Previous 3 Hours (2 minute increments)
Jump up to Graphs
Switch to [English][Metric]
                  Wind  Wind  Wind   Air   Dew   Rel
                   Spd   Gst   Dir  Temp    Pt   Hum
YYYY-MM-DD   CDT   kts   kts   deg     F     F     %
2017-06-22 15:00  14.6  15.2   211  83.7  69.3  61.4
2017-06-22 14:00  17.1  17.9   217  84.2  68.5  58.7
2017-06-22 13:00  19.4  22.0   209  81.5  66.4  59.7
2017-06-22 12:00  20.0  23.1   202  81.1  65.6  58.7
2017-06-22 11:00  18.5  20.0   197  79.7  67.3  65.3
2017-06-22 10:00  14.8  21.4   208  77.4  66.6  69.0
2017-06-22 09:00  15.9  18.9   209  76.8  66.9  70.9
2017-06-22 08:00  16.1  17.7   221  76.5  66.7  71.3
2017-06-22 07:00  23.7  29.4   215  78.4  66.2  65.7
2017-06-22 06:00  16.5  19.2   227  79.2  66.6  65.0
2017-06-22 05:00  22.0  23.3   216  78.6  67.7  68.8
2017-06-22 04:00  25.3  29.5   214  79.0  68.0  68.5
2017-06-22 03:00  15.2  16.9   190  73.9  65.1  73.6
2017-06-22 02:00   8.2   8.6   173  68.4  63.3  83.7
2017-06-22 01:00  11.3  11.9   158  68.4  64.1  86.2
2017-06-22 00:00   5.4   5.8   175  67.5  64.3  89.3
2017-06-21 23:00   5.8   6.6   165  67.8  63.1  84.6
2017-06-21 22:00   4.5   4.9   145  67.8  61.9  81.2
2017-06-21 21:00   3.1   3.9   131  67.6  61.2  79.7
2017-06-21 20:00   5.4   6.2   172  67.5  60.9  79.3
2017-06-21 19:00   1.6   3.1   127  67.3  62.1  83.3
2017-06-21 18:00  10.3  11.1    91  67.3  60.9  79.7
2017-06-21 17:00  11.7  12.6    84  66.9  60.8  80.3
2017-06-21 16:00  11.5  12.4    86  66.7  60.7  80.7
2017-06-21 15:00   7.0   7.6    49  66.7  61.0  81.5
2017-06-21 14:00   8.0   8.6    50  66.6  59.3  77.2
2017-06-21 13:00   6.4   7.2    52  66.0  60.4  81.8
2017-06-21 12:00   2.7   3.3    78  66.4  61.2  83.1
2017-06-21 11:00   4.1   4.5   137  67.6  60.6  78.0
2017-06-21 10:00   5.6   6.2    86  64.6  58.4  80.2
2017-06-21 09:00   5.8   6.2    98  64.2  58.2  80.4
2017-06-21 08:00   4.3   4.7    85  64.4  59.1  82.7
2017-06-21 07:00   4.1   4.5    68  63.9  58.7  83.0
2017-06-21 06:00   1.7   1.7    75  65.1  58.8  79.8
2017-06-21 05:00   4.7   4.9    50  63.3  58.7  84.6
2017-06-21 04:00   3.7   3.9    59  63.3  58.9  85.2
2017-06-21 03:00   4.1   4.3    34  63.0  60.2  90.6
2017-06-21 02:00   3.3   3.3    36  63.1  59.8  88.7
2017-06-21 01:00   1.2   1.4    67  63.3  60.0  88.8
2017-06-21 00:00   3.3   3.7    83  63.5  59.3  85.9
2017-06-20 23:00   5.6   6.0    47  63.7  57.7  80.6
2017-06-20 22:00   5.4   6.0    37  63.9  58.9  83.8
2017-06-20 21:00  11.3  12.1    48  64.4  58.8  81.9
2017-06-20 20:00  10.3  11.3    86  64.8  59.1  81.6
2017-06-20 19:00  11.5  12.4    94  64.4  59.4  83.5
2017-06-20 18:00  16.9  18.3   110  64.0  57.5  79.0
2017-06-20 17:00  10.1  11.7    88  61.9  55.8  80.3
2017-06-20 16:00  20.4  22.7    48  61.2  53.8  76.5
2017-06-20 15:00  22.7  24.1    36  61.2  55.2  80.4
2017-06-20 14:00  12.2  12.8    52  68.2  60.2  75.2
2017-06-20 13:00  15.6  16.5   305  75.4  49.6  39.8
2017-06-20 12:00  11.3  13.8   280  75.6  50.3  40.6
2017-06-20 11:00   8.9  11.9   264  73.8  50.2  43.0
2017-06-20 10:00  15.0  17.1   257  72.0  51.4  47.8
2017-06-20 09:00  15.2  18.1   261  70.5  52.5  52.3
2017-06-20 08:00   9.7  11.3   255  66.7  54.7  64.8
2017-06-20 07:00  10.9  12.1   253  65.8  54.3  65.9
2017-06-20 06:00  13.4  14.8   249  64.8  54.3  68.4
2017-06-20 05:00  10.7  11.3   235  63.5  55.1  73.9
2017-06-20 04:00  11.3  12.1   251  64.2  55.4  72.7
2017-06-20 03:00  10.1  11.1   268  64.2  55.3  72.4
2017-06-20 02:00   9.9  10.7   282  64.6  56.2  73.8
2017-06-20 01:00  12.4  13.4   271  65.1  55.7  71.3
2017-06-20 00:00   9.5  10.1   261  65.8  56.0  70.2
2017-06-19 23:00  11.5  13.2   264  67.3  55.3  64.9
2017-06-19 22:00  15.7  19.6   286  68.2  54.6  61.5
2017-06-19 21:00  13.6  15.4   271  68.9  54.0  58.5
2017-06-19 20:00   9.3  10.9   267  68.5  53.4  58.1
2017-06-19 19:00   0.6   1.0   243  70.7  54.1  55.2
2017-06-19 18:00   5.2   6.4   307  64.0  54.9  71.9
2017-06-19 17:00  10.1  11.1   341  63.5  56.3  77.0
2017-06-19 16:00  19.1  21.8   346  67.5  55.2  64.3
2017-06-19 15:00   6.2   7.6    95  67.5  58.5  72.7
2017-06-19 14:00  10.7  12.6   279  74.5  52.5  45.6
2017-06-19 13:00   3.9   5.8     4  70.3  56.4  60.8
2017-06-19 12:00   7.0   9.3   318  69.6  56.2  62.0
2017-06-19 11:00   7.6   9.3   325  71.1  55.1  56.6
2017-06-19 10:00  10.1  11.1   309  70.2  54.5  57.1
2017-06-19 09:00   7.0   8.0   280  69.1  56.4  63.5
2017-06-19 08:00   7.0   7.6   289  68.7  55.9  63.3
2017-06-19 07:00  10.1  11.1   264  67.6  55.6  65.0
2017-06-19 06:00   9.1   9.7   266  67.6  55.3  64.1
2017-06-19 05:00  10.5  11.1   257  68.2  55.3  62.9
2017-06-19 04:00  11.3  12.2   270  69.1  54.1  58.5
2017-06-19 03:00  10.7  12.6   291  70.3  53.5  54.6
2017-06-19 02:00  10.9  12.2   286  70.3  53.4  54.5
2017-06-19 01:00  15.9  17.3   289  71.1  53.0  52.4
2017-06-19 00:00  15.9  18.5   277  72.1  54.6  53.6
2017-06-18 23:00  13.2  14.4   276  73.4  54.5  51.1
2017-06-18 22:00  13.6  14.6   283  74.3  56.2  52.7
2017-06-18 21:00  11.7  14.2   249  74.5  56.9  53.8
2017-06-18 20:00  12.1  14.6   246  73.6  56.9  55.5
2017-06-18 19:00  15.4  18.5   242  74.5  55.9  51.8
2017-06-18 18:00  12.8  14.0   281  74.7  54.5  48.8
2017-06-18 17:00  17.5  19.2   280  75.6  53.0  44.8
2017-06-18 16:00  13.6  15.6   272  75.0  55.8  50.6
2017-06-18 15:00  21.0  24.3   272  75.4  55.6  49.6
2017-06-18 14:00  15.7  18.1   277  74.8  56.6  52.5
2017-06-18 13:00  14.4  16.5   257  74.5  56.7  53.3
2017-06-18 12:00  20.2  24.3   271  73.4  56.3  54.6
2017-06-18 11:00  19.6  23.7   265  72.7  57.1  57.5
2017-06-18 10:00  16.7  22.0   256  72.1  58.9  62.5
2017-06-18 09:00  16.3  18.1   272  71.4  61.6  70.7
2017-06-18 08:00  17.3  19.8   273  72.5  64.2  74.8
2017-06-18 07:00  17.1  20.6   252  73.2  67.0  80.5
2017-06-18 06:00  19.8  23.1   226  72.9  68.1  84.8
2017-06-18 05:00  21.0  23.9   221  72.7  69.1  88.3
2017-06-18 04:00  20.6  22.7   224  71.6  68.9  91.0
2017-06-18 03:00   9.1  10.1   195  68.9  66.7  92.7
2017-06-18 02:00   4.1   4.7   205  71.1  68.3  90.8
2017-06-18 01:00  10.3  11.5   196  71.8  69.2  91.5
2017-06-18 00:00   2.5   3.9    44  68.9  66.6  92.3
2017-06-17 23:00   6.4   7.6    16  69.8  67.4  91.9
2017-06-17 22:00   0.4   1.9     2  69.6  68.0  94.5
2017-06-17 21:00   0.2   1.2   127  69.6  67.6  93.3
2017-06-17 20:00  10.7  11.7   102  69.4  67.5  93.5
2017-06-17 19:00   0.8   1.0   346  78.6  70.4  75.5